createdAt,value
2019-02-22T00:02:25.263Z,101293.73
2019-02-22T00:04:54.671Z,101298.11
2019-02-22T00:07:24.101Z,101297.89
2019-02-22T00:09:53.747Z,101296.82
2019-02-22T00:12:23.917Z,101297.30
2019-02-22T00:14:53.343Z,101299.52
2019-02-22T00:17:24.281Z,101303.33
2019-02-22T00:19:53.663Z,101296.95
2019-02-22T00:22:23.149Z,101292.85
2019-02-22T00:24:52.562Z,101295.91
2019-02-22T00:27:24.383Z,101295.30
2019-02-22T00:29:53.796Z,101289.91
2019-02-22T00:32:23.313Z,101297.99
2019-02-22T00:34:52.776Z,101300.41
2019-02-22T00:37:22.581Z,101303.12
2019-02-22T00:39:51.959Z,101299.50
2019-02-22T00:42:21.435Z,101300.09
2019-02-22T00:44:50.804Z,101301.09
2019-02-22T00:47:20.192Z,101298.77
2019-02-22T00:49:51.217Z,101298.56
2019-02-22T00:52:20.644Z,101309.86
2019-02-22T00:54:50.055Z,101309.70
2019-02-22T00:57:19.554Z,101309.20
2019-02-22T00:59:49.168Z,101315.62
2019-02-22T01:02:19.002Z,101313.34
2019-02-22T01:04:49.365Z,101311.39
2019-02-22T01:07:19.369Z,101314.34
2019-02-22T01:09:48.928Z,101311.79
2019-02-22T01:12:18.562Z,101313.17
2019-02-22T01:14:48.350Z,101316.88
2019-02-22T01:17:18.093Z,101319.09
2019-02-22T01:19:49.632Z,101317.23
2019-02-22T01:22:19.085Z,101319.09
2019-02-22T01:24:48.533Z,101315.27
2019-02-22T01:27:17.933Z,101313.95
2019-02-22T01:29:47.337Z,101315.31
2019-02-22T01:32:18.258Z,101318.09
2019-02-22T01:34:47.699Z,101323.84
2019-02-22T01:37:17.538Z,101320.27
2019-02-22T01:39:46.970Z,101323.56
2019-02-22T01:42:16.939Z,101319.22
2019-02-22T01:44:48.877Z,101326.94
2019-02-22T01:47:19.009Z,101323.87
2019-02-22T01:49:48.522Z,101325.33
2019-02-22T01:52:20.795Z,101329.36
2019-02-22T01:54:50.587Z,101327.52
2019-02-22T01:57:19.983Z,101330.38
2019-02-22T01:59:49.384Z,101334.52
2019-02-22T02:02:18.832Z,101331.37
2019-02-22T02:04:49.114Z,101331.37
2019-02-22T02:07:18.593Z,101336.19
2019-02-22T02:09:51.051Z,101328.20
2019-02-22T02:12:24.620Z,101330.75
2019-02-22T02:14:54.163Z,101329.95
2019-02-22T02:17:23.558Z,101335.72
2019-02-22T02:19:54.980Z,101337.58
2019-02-22T02:22:24.189Z,101345.06
2019-02-22T02:24:55.220Z,101344.20
2019-02-22T02:27:24.760Z,101343.33
2019-02-22T02:29:54.186Z,101343.38
2019-02-22T02:32:28.265Z,101343.59
2019-02-22T02:34:57.741Z,101340.73
2019-02-22T02:37:27.152Z,101338.83
2019-02-22T02:39:56.588Z,101338.38
2019-02-22T02:42:26.011Z,101343.00
2019-02-22T02:44:55.420Z,101340.25
2019-02-22T02:47:25.085Z,101345.68
2019-02-22T02:49:54.505Z,101344.77
2019-02-22T02:52:26.257Z,101345.13
2019-02-22T02:54:55.921Z,101344.06
2019-02-22T02:57:25.329Z,101346.68
2019-02-22T02:59:54.800Z,101353.28
2019-02-22T03:02:26.059Z,101351.72
2019-02-22T03:04:55.565Z,101353.00
2019-02-22T03:07:26.823Z,101353.76
2019-02-22T03:09:56.259Z,101358.05
2019-02-22T03:12:26.085Z,101360.36
2019-02-22T03:14:56.047Z,101355.31
2019-02-22T03:17:26.075Z,101361.85
2019-02-22T03:19:56.482Z,101367.27
2019-02-22T03:22:26.071Z,101370.84
2019-02-22T03:24:56.478Z,101369.61
2019-02-22T03:27:25.943Z,101369.48
2019-02-22T03:29:55.752Z,101371.05
2019-02-22T03:32:25.311Z,101372.47
2019-02-22T03:34:57.648Z,101372.22
2019-02-22T03:37:27.148Z,101371.28
2019-02-22T03:39:56.624Z,101371.50
2019-02-22T03:42:26.013Z,101376.65
2019-02-22T03:44:55.644Z,101373.66
2019-02-22T03:47:25.158Z,101373.16
2019-02-22T03:49:54.757Z,101377.61
2019-02-22T03:52:25.811Z,101373.16
2019-02-22T03:54:55.586Z,101375.18
2019-02-22T03:57:25.110Z,101368.16
2019-02-22T03:59:54.624Z,101375.98
2019-02-22T04:02:24.259Z,101387.98
2019-02-22T04:04:53.811Z,101387.83
2019-02-22T04:07:23.213Z,101397.72
2019-02-22T04:09:58.367Z,101399.78
2019-02-22T04:12:25.738Z,101392.47
2019-02-22T04:14:55.176Z,101395.84
2019-02-22T04:17:24.601Z,101401.56
2019-02-22T04:19:54.032Z,101398.99
2019-02-22T04:22:23.515Z,101399.23
2019-02-22T04:24:52.933Z,101411.42
2019-02-22T04:27:22.458Z,101410.39
2019-02-22T04:29:52.312Z,101413.98
2019-02-22T04:32:26.968Z,101411.28
2019-02-22T04:35:00.584Z,101414.94
2019-02-22T04:37:36.231Z,101410.72
2019-02-22T04:40:11.122Z,101415.17
2019-02-22T04:42:50.317Z,101414.46
2019-02-22T04:45:24.361Z,101417.77
2019-02-22T04:47:58.761Z,101416.75
2019-02-22T04:50:31.972Z,101421.33
2019-02-22T04:53:04.088Z,101422.82
2019-02-22T04:55:40.264Z,101426.80
2019-02-22T04:58:10.225Z,101423.68
2019-02-22T05:00:42.960Z,101421.80
2019-02-22T05:03:14.795Z,101429.95
2019-02-22T05:05:44.858Z,101429.07
2019-02-22T05:08:14.626Z,101425.02
2019-02-22T05:10:44.560Z,101425.93
2019-02-22T05:13:13.993Z,101423.42
2019-02-22T05:15:43.747Z,101426.77
2019-02-22T05:18:13.366Z,101424.73
2019-02-22T05:20:43.077Z,101425.07
2019-02-22T05:23:12.787Z,101438.85
2019-02-22T05:25:42.142Z,101439.36
2019-02-22T05:28:11.651Z,101447.34
2019-02-22T05:30:41.379Z,101453.86
2019-02-22T05:33:11.161Z,101452.59
2019-02-22T05:35:40.868Z,101460.04
2019-02-22T05:38:10.280Z,101468.08
2019-02-22T05:40:39.676Z,101465.75
2019-02-22T05:43:09.162Z,101466.55
2019-02-22T05:45:38.653Z,101467.61
2019-02-22T05:48:08.144Z,101473.39
2019-02-22T05:50:37.755Z,101477.70
2019-02-22T05:53:07.328Z,101478.14
2019-02-22T05:55:36.768Z,101484.70
2019-02-22T05:58:06.363Z,101491.86
2019-02-22T06:00:36.838Z,101490.98
2019-02-22T06:03:06.349Z,101490.27
2019-02-22T06:05:36.005Z,101494.02
2019-02-22T06:08:09.064Z,101486.73
2019-02-22T06:10:39.015Z,101488.45
2019-02-22T06:13:09.489Z,101489.56
2019-02-22T06:15:39.490Z,101495.95
2019-02-22T06:18:12.205Z,101500.91
2019-02-22T06:20:55.785Z,101514.27
2019-02-22T06:23:25.709Z,101511.58
2019-02-22T06:25:55.275Z,101521.09
2019-02-22T06:28:28.034Z,101517.27
2019-02-22T06:31:21.942Z,101521.97
2019-02-22T06:33:41.287Z,101522.47
2019-02-22T06:36:12.307Z,101521.44
2019-02-22T06:38:46.823Z,101517.63
2019-02-22T06:41:16.435Z,101519.00
2019-02-22T06:43:46.474Z,101514.76
2019-02-22T06:46:18.476Z,101520.16
2019-02-22T06:48:50.908Z,101518.16
2019-02-22T06:51:21.967Z,101525.48
2019-02-22T06:53:52.242Z,101530.95
2019-02-22T06:56:26.772Z,101536.30
2019-02-22T06:58:56.835Z,101534.30
2019-02-22T07:01:27.455Z,101537.83
2019-02-22T07:03:57.235Z,101540.84
2019-02-22T07:06:27.145Z,101542.67
2019-02-22T07:09:10.607Z,101540.81
2019-02-22T07:11:41.922Z,101546.34
2019-02-22T07:14:12.197Z,101546.08
2019-02-22T07:16:43.734Z,101551.54
2019-02-22T07:19:13.958Z,101554.19
2019-02-22T07:21:52.698Z,101551.75
2019-02-22T07:24:18.154Z,101556.99
2019-02-22T07:26:52.746Z,101563.25
2019-02-22T07:29:24.423Z,101570.52
2019-02-22T07:32:05.438Z,101573.48
2019-02-22T07:34:28.643Z,101569.59
2019-02-22T07:36:58.356Z,101578.45
2019-02-22T07:39:28.540Z,101572.16
2019-02-22T07:41:58.738Z,101583.23
2019-02-22T07:44:28.580Z,101585.59
2019-02-22T07:47:00.783Z,101590.36
2019-02-22T07:49:30.478Z,101600.61
2019-02-22T07:52:00.083Z,101608.53
2019-02-22T07:54:31.072Z,101612.69
2019-02-22T07:57:02.887Z,101615.77
2019-02-22T07:59:32.520Z,101622.63
2019-02-22T08:02:02.376Z,101622.79
2019-02-22T08:04:32.219Z,101621.52
2019-02-22T08:07:01.962Z,101624.74
2019-02-22T08:09:35.454Z,101618.97
2019-02-22T08:12:05.280Z,101618.33
2019-02-22T08:14:36.344Z,101621.61
2019-02-22T08:17:06.353Z,101626.35
2019-02-22T08:19:37.687Z,101628.05
2019-02-22T08:22:07.711Z,101636.81
2019-02-22T08:24:37.786Z,101641.10
2019-02-22T08:27:07.741Z,101644.30
2019-02-22T08:29:51.811Z,101646.58
2019-02-22T08:32:22.359Z,101646.17
2019-02-22T08:34:52.122Z,101646.70
2019-02-22T08:37:26.014Z,101651.89
2019-02-22T08:39:58.836Z,101652.37
2019-02-22T08:42:27.325Z,101657.78
2019-02-22T08:44:58.268Z,101663.22
2019-02-22T08:47:28.168Z,101661.47
2019-02-22T08:49:58.094Z,101662.28
2019-02-22T08:52:28.149Z,101658.28
2019-02-22T08:54:57.855Z,101665.60
2019-02-22T08:57:27.471Z,101671.22
2019-02-22T08:59:57.231Z,101673.40
2019-02-22T09:02:27.227Z,101677.74
2019-02-22T09:04:56.917Z,101673.69
2019-02-22T09:07:28.149Z,101681.90
2019-02-22T09:10:06.183Z,101679.67
2019-02-22T09:12:38.162Z,101688.05
2019-02-22T09:15:12.102Z,101687.55
2019-02-22T09:17:41.916Z,101701.20
2019-02-22T09:20:13.535Z,101699.21
2019-02-22T09:22:46.104Z,101709.17
2019-02-22T09:25:15.861Z,101712.36
2019-02-22T09:27:47.563Z,101719.91
2019-02-22T09:30:17.402Z,101723.71
2019-02-22T09:32:48.454Z,101729.13
2019-02-22T09:35:18.392Z,101724.89
2019-02-22T09:37:48.412Z,101725.50
2019-02-22T09:40:17.954Z,101719.53
2019-02-22T09:42:52.657Z,101727.51
2019-02-22T09:45:24.475Z,101725.76
2019-02-22T09:47:56.645Z,101726.53
2019-02-22T09:50:28.317Z,101729.19
2019-02-22T09:52:58.789Z,101730.66
2019-02-22T09:55:28.891Z,101737.30
2019-02-22T09:57:59.965Z,101737.48
2019-02-22T10:00:30.024Z,101736.47
2019-02-22T10:03:00.521Z,101743.49
2019-02-22T10:05:31.032Z,101739.75
2019-02-22T10:08:00.647Z,101740.69
2019-02-22T10:10:30.674Z,101740.66
2019-02-22T10:13:02.559Z,101743.70
2019-02-22T10:15:34.325Z,101740.61
2019-02-22T10:18:04.133Z,101746.52
2019-02-22T10:20:34.775Z,101747.02
2019-02-22T10:23:04.880Z,101751.09
2019-02-22T10:25:34.716Z,101747.47
2019-02-22T10:28:16.902Z,101743.89
2019-02-22T10:30:38.873Z,101747.61
2019-02-22T10:33:10.256Z,101757.38
2019-02-22T10:35:39.979Z,101754.15
2019-02-22T10:38:14.780Z,101759.47
2019-02-22T10:40:44.432Z,101761.15
2019-02-22T10:43:14.896Z,101756.86
2019-02-22T10:45:44.406Z,101756.75
2019-02-22T10:48:15.900Z,101759.25
2019-02-22T10:50:45.662Z,101764.97
2019-02-22T10:53:17.106Z,101760.73
2019-02-22T10:55:47.610Z,101762.05
2019-02-22T10:58:17.950Z,101761.50
2019-02-22T11:00:47.730Z,101766.32
2019-02-22T11:03:17.444Z,101772.31
2019-02-22T11:05:47.525Z,101775.02
2019-02-22T11:08:18.778Z,101776.37
2019-02-22T11:10:55.260Z,101774.75
2019-02-22T11:13:28.001Z,101783.55
2019-02-22T11:15:57.487Z,101783.88
2019-02-22T11:18:27.884Z,101782.73
2019-02-22T11:20:58.485Z,101782.14
2019-02-22T11:23:28.398Z,101782.91
2019-02-22T11:25:58.388Z,101776.98
2019-02-22T11:28:29.900Z,101778.36
2019-02-22T11:31:00.230Z,101780.45
2019-02-22T11:33:31.388Z,101780.70
2019-02-22T11:36:26.660Z,101779.56
2019-02-22T11:38:58.747Z,101774.88
2019-02-22T11:41:35.694Z,101776.27
2019-02-22T11:44:07.038Z,101765.34
2019-02-22T11:46:46.267Z,101766.20
2019-02-22T11:49:22.054Z,101770.55
2019-02-22T11:51:56.068Z,101768.11
2019-02-22T11:54:42.268Z,101768.46
2019-02-22T11:57:07.776Z,101764.66
2019-02-22T12:00:02.705Z,101761.28
2019-02-22T12:02:34.603Z,101770.60
2019-02-22T12:05:14.303Z,101771.27
2019-02-22T12:08:03.625Z,101767.09
2019-02-22T12:10:34.201Z,101766.39
2019-02-22T12:13:08.437Z,101767.80
2019-02-22T12:15:44.186Z,101761.70
2019-02-22T12:18:26.343Z,101768.38
2019-02-22T12:20:58.964Z,101765.27
2019-02-22T12:23:34.405Z,101771.36
2019-02-22T12:26:11.970Z,101768.07
2019-02-22T12:29:10.678Z,101772.22
2019-02-22T12:32:04.663Z,101775.53
2019-02-22T12:34:49.090Z,101773.13
2019-02-22T12:37:23.098Z,101765.11
2019-02-22T12:40:01.558Z,101768.42
2019-02-22T12:42:36.161Z,101769.73
2019-02-22T12:45:16.478Z,101768.16
2019-02-22T12:48:00.667Z,101765.28
2019-02-22T12:50:31.923Z,101771.47
2019-02-22T12:53:10.466Z,101773.98
2019-02-22T12:55:40.259Z,101773.45
2019-02-22T12:58:21.378Z,101772.87
2019-02-22T13:00:54.893Z,101774.95
2019-02-22T13:03:27.515Z,101773.94
2019-02-22T13:06:01.929Z,101773.77
2019-02-22T13:11:31.363Z,101779.17
2019-02-22T13:14:10.791Z,101785.17
2019-02-22T13:16:47.431Z,101775.77
2019-02-22T13:19:35.871Z,101779.36
2019-02-22T13:22:12.817Z,101781.69
2019-02-22T13:24:51.868Z,101780.73
2019-02-22T13:27:25.192Z,101779.41
2019-02-22T13:30:05.068Z,101788.70
2019-02-22T13:32:43.938Z,101787.09
2019-02-22T13:35:24.933Z,101794.51
2019-02-22T13:37:58.248Z,101787.94
2019-02-22T13:40:41.940Z,101796.03
2019-02-22T13:43:14.350Z,101796.29
2019-02-22T13:45:51.183Z,101800.94
2019-02-22T13:51:54.369Z,101802.95
2019-02-22T13:54:32.319Z,101800.50
2019-02-22T13:57:38.469Z,101798.72
2019-02-22T14:00:24.619Z,101787.47
2019-02-22T14:12:27.158Z,101761.43
2019-02-22T14:14:56.662Z,101759.40
2019-02-22T14:17:26.991Z,101753.62
2019-02-22T14:20:00.668Z,101754.12
2019-02-22T14:22:30.130Z,101755.45
2019-02-22T14:25:01.247Z,101747.00
2019-02-22T14:27:30.793Z,101743.27
2019-02-22T14:30:04.246Z,101742.83
2019-02-22T14:32:35.651Z,101745.89
2019-02-22T14:35:06.332Z,101744.20
2019-02-22T14:37:35.776Z,101748.19
2019-02-22T14:40:09.070Z,101749.32
2019-02-22T14:42:39.490Z,101755.62
2019-02-22T14:45:11.637Z,101758.84
2019-02-22T14:47:41.261Z,101760.42
2019-02-22T14:50:18.508Z,101765.28
2019-02-22T14:52:48.077Z,101767.19
2019-02-22T14:55:19.391Z,101764.17
2019-02-22T14:57:50.181Z,101766.00
2019-02-22T15:07:03.200Z,101773.59
2019-02-22T15:10:00.522Z,101778.54
2019-02-22T15:13:05.540Z,101779.42
2019-02-22T15:19:32.139Z,101777.93
2019-02-22T15:22:57.982Z,101786.13
2019-02-22T15:25:17.244Z,101790.95
2019-02-22T15:28:10.057Z,101793.22
2019-02-22T15:31:54.768Z,101797.31
2019-02-22T15:33:42.591Z,101796.27
2019-02-22T15:36:24.481Z,101790.28
2019-02-22T15:38:58.763Z,101792.20
2019-02-22T15:41:28.119Z,101796.66
2019-02-22T15:43:57.590Z,101802.16
2019-02-22T15:46:37.102Z,101798.33
2019-02-22T15:49:14.903Z,101793.53
2019-02-22T15:51:47.099Z,101799.34
2019-02-22T15:54:43.888Z,101796.19
2019-02-22T15:57:22.264Z,101797.71
2019-02-22T15:59:57.843Z,101793.88
2019-02-22T16:02:50.333Z,101787.95
2019-02-22T16:05:12.440Z,101781.75
2019-02-22T16:07:48.521Z,101785.01
2019-02-22T16:10:22.916Z,101783.88
2019-02-22T16:12:58.930Z,101790.70
2019-02-22T16:15:33.279Z,101789.74
2019-02-22T16:18:03.103Z,101792.57
2019-02-22T16:20:44.273Z,101797.28
2019-02-22T16:23:13.780Z,101796.78
2019-02-22T16:25:43.516Z,101795.84
2019-02-22T16:28:15.838Z,101802.85
2019-02-22T16:30:50.709Z,101797.75
2019-02-22T16:33:20.408Z,101799.06
2019-02-22T16:35:58.059Z,101795.81
2019-02-22T16:38:33.704Z,101793.94
2019-02-22T16:41:08.602Z,101798.78
2019-02-22T16:43:56.744Z,101793.05
2019-02-22T16:46:36.124Z,101794.62
2019-02-22T16:49:08.285Z,101788.87
2019-02-22T16:51:48.176Z,101783.34
2019-02-22T16:54:21.042Z,101791.69
2019-02-22T16:56:53.509Z,101800.50
2019-02-22T16:59:26.231Z,101809.09
2019-02-22T17:02:14.944Z,101811.05
2019-02-22T17:04:44.343Z,101805.84
2019-02-22T17:07:13.732Z,101811.86
2019-02-22T17:09:43.120Z,101821.58
2019-02-22T17:12:12.572Z,101817.88
2019-02-22T17:14:41.951Z,101822.24
2019-02-22T17:17:11.346Z,101826.95
2019-02-22T17:19:41.016Z,101823.70
2019-02-22T17:22:10.561Z,101810.45
2019-02-22T17:24:39.974Z,101805.20
2019-02-22T17:27:09.383Z,101817.58
2019-02-22T17:29:38.764Z,101813.80
2019-02-22T17:32:08.161Z,101814.62
2019-02-22T17:34:37.551Z,101812.17
2019-02-22T17:37:06.959Z,101823.56
2019-02-22T17:39:36.348Z,101830.00
2019-02-22T17:42:05.740Z,101831.62
2019-02-22T17:44:35.120Z,101826.78
2019-02-22T17:47:06.499Z,101831.63
2019-02-22T17:49:36.049Z,101839.33
2019-02-22T17:52:05.529Z,101850.80
2019-02-22T17:54:34.913Z,101854.14
2019-02-22T17:57:04.659Z,101851.70
2019-02-22T17:59:34.042Z,101849.70
2019-02-22T18:02:03.444Z,101839.81
2019-02-22T18:04:32.831Z,101843.13
2019-02-22T18:07:02.225Z,101838.41
2019-02-22T18:09:31.628Z,101833.39
2019-02-22T18:12:01.013Z,101845.88
2019-02-22T18:14:30.390Z,101846.95
2019-02-22T18:17:07.958Z,101846.08
2019-02-22T18:19:31.976Z,101844.25
2019-02-22T18:22:01.473Z,101848.67
2019-02-22T18:24:30.851Z,101851.50
2019-02-22T18:27:00.255Z,101855.02
2019-02-22T18:29:35.285Z,101853.25
2019-02-22T18:32:00.773Z,101854.02
2019-02-22T18:34:30.151Z,101860.02
2019-02-22T18:36:59.539Z,101866.56
2019-02-22T18:39:28.917Z,101859.06
2019-02-22T18:41:58.326Z,101853.58
2019-02-22T18:44:27.810Z,101844.53
2019-02-22T18:46:57.227Z,101848.17
2019-02-22T18:49:26.970Z,101844.42
2019-02-22T18:51:56.364Z,101844.86
2019-02-22T18:54:25.738Z,101849.25
2019-02-22T18:56:55.148Z,101843.05
2019-02-22T18:59:24.529Z,101834.92
2019-02-22T19:01:53.927Z,101835.17
2019-02-22T19:04:23.327Z,101842.19
2019-02-22T19:06:52.714Z,101848.52
2019-02-22T19:09:22.538Z,101844.48
2019-02-22T19:11:51.920Z,101846.70
2019-02-22T19:14:21.313Z,101831.79
2019-02-22T19:30:59.447Z,101823.02
2019-02-22T19:34:18.398Z,101830.34
2019-02-22T19:45:50.016Z,101835.53
2019-02-22T19:52:03.623Z,101862.60
2019-02-22T19:59:43.460Z,101875.87
2019-02-22T20:05:17.254Z,101884.42
2019-02-22T20:07:46.991Z,101883.02
2019-02-22T20:10:23.852Z,101892.45
2019-02-22T20:12:53.225Z,101895.13
2019-02-22T20:15:22.631Z,101896.82
2019-02-22T20:17:54.381Z,101889.77
2019-02-22T20:20:23.410Z,101889.09
2019-02-22T20:22:52.807Z,101883.84
2019-02-22T20:25:22.485Z,101881.70
2019-02-22T20:27:51.943Z,101882.00
2019-02-22T20:30:21.526Z,101880.15
2019-02-22T20:32:50.938Z,101878.92
2019-02-22T20:35:26.732Z,101884.34
2019-02-22T20:37:56.402Z,101883.05
2019-02-22T20:40:26.041Z,101872.64
2019-02-22T20:42:55.422Z,101876.55
2019-02-22T20:45:24.817Z,101877.63
2019-02-22T20:48:04.662Z,101881.98
2019-02-22T20:50:26.505Z,101872.67
2019-02-22T20:52:56.226Z,101881.77
2019-02-22T20:55:25.621Z,101886.30
2019-02-22T20:57:55.003Z,101892.56
2019-02-22T21:00:29.433Z,101893.00
2019-02-22T21:02:59.145Z,101892.56
2019-02-22T21:05:28.534Z,101901.05
2019-02-22T21:07:58.290Z,101899.66
2019-02-22T21:10:27.681Z,101900.70
2019-02-22T21:12:57.367Z,101904.19
2019-02-22T21:15:26.756Z,101897.56
2019-02-22T21:17:56.157Z,101899.91
2019-02-22T21:20:25.790Z,101903.52
2019-02-22T21:22:55.168Z,101912.59
2019-02-22T21:25:24.561Z,101909.41
2019-02-22T21:27:53.953Z,101912.73
2019-02-22T21:30:23.414Z,101912.21
2019-02-22T21:32:52.814Z,101912.38
2019-02-22T21:35:22.305Z,101913.16
2019-02-22T21:37:52.455Z,101906.99
2019-02-22T21:40:22.646Z,101913.38
2019-02-22T21:42:52.071Z,101906.77
2019-02-22T21:45:21.474Z,101902.38
2019-02-22T21:47:55.473Z,101903.20
2019-02-22T21:50:22.323Z,101897.70
2019-02-22T21:52:51.696Z,101896.30
2019-02-22T21:55:21.162Z,101901.66
2019-02-22T21:57:50.543Z,101904.45
2019-02-22T22:00:28.103Z,101903.09
2019-02-22T22:03:00.171Z,101903.60
2019-02-22T22:05:29.552Z,101905.06
2019-02-22T22:07:59.040Z,101905.48
2019-02-22T22:10:28.498Z,101912.47
2019-02-22T22:12:57.880Z,101918.41
2019-02-22T22:15:27.269Z,101915.30
2019-02-22T22:17:56.697Z,101917.28
2019-02-22T22:20:26.081Z,101912.03
2019-02-22T22:22:55.783Z,101914.94
2019-02-22T22:25:25.176Z,101917.64
2019-02-22T22:27:54.555Z,101914.73
2019-02-22T22:30:23.933Z,101916.06
2019-02-22T22:32:53.329Z,101924.81
2019-02-22T22:35:22.703Z,101921.91
2019-02-22T22:37:52.361Z,101919.43
2019-02-22T22:42:51.339Z,101919.97
2019-02-22T22:45:20.757Z,101924.23
2019-02-22T22:47:50.134Z,101922.06
2019-02-22T22:50:19.488Z,101923.65
2019-02-22T22:52:48.872Z,101922.69
2019-02-22T22:55:18.246Z,101921.43
2019-02-22T22:57:47.626Z,101923.30
2019-02-22T23:00:47.573Z,101927.83
2019-02-22T23:03:17.142Z,101928.45
2019-02-22T23:05:46.513Z,101923.38
2019-02-22T23:08:15.908Z,101926.79
2019-02-22T23:10:45.351Z,101922.57
2019-02-22T23:13:15.016Z,101920.77
2019-02-22T23:15:44.752Z,101913.66
2019-02-22T23:18:14.159Z,101914.50
2019-02-22T23:20:45.716Z,101915.13
2019-02-22T23:23:17.099Z,101921.28
2019-02-22T23:25:46.689Z,101919.77
2019-02-22T23:28:16.182Z,101916.52
2019-02-22T23:30:45.607Z,101917.15
2019-02-22T23:33:15.176Z,101915.61
2019-02-22T23:35:46.230Z,101916.40
2019-02-22T23:38:15.643Z,101913.22
2019-02-22T23:40:45.099Z,101917.89
2019-02-22T23:43:14.589Z,101916.66
2019-02-22T23:45:44.039Z,101913.77
2019-02-22T23:48:13.479Z,101908.75
2019-02-22T23:50:42.811Z,101907.43
2019-02-22T23:53:31.530Z,101910.81
2019-02-22T23:56:00.905Z,101901.37
2019-02-22T23:58:30.285Z,101905.41
